sensor_id;sensor_type;location;lat;lon;timestamp;temperature;humidity
53272;DHT22;39160;48.580;7.756;2024-02-23T00:00:43;10.00;99.90
53272;DHT22;39160;48.580;7.756;2024-02-23T00:05:34;10.00;99.90
53272;DHT22;39160;48.580;7.756;2024-02-23T00:10:24;10.10;99.90
53272;DHT22;39160;48.580;7.756;2024-02-23T00:15:16;10.10;99.90
53272;DHT22;39160;48.580;7.756;2024-02-23T00:20:09;10.20;99.90
53272;DHT22;39160;48.580;7.756;2024-02-23T00:25:01;10.20;99.90
53272;DHT22;39160;48.580;7.756;2024-02-23T00:29:52;10.20;99.90
53272;DHT22;39160;48.580;7.756;2024-02-23T00:34:43;10.20;99.90
53272;DHT22;39160;48.580;7.756;2024-02-23T00:39:34;10.20;99.90
53272;DHT22;39160;48.580;7.756;2024-02-23T00:44:24;10.20;99.90
53272;DHT22;39160;48.580;7.756;2024-02-23T00:49:15;10.20;99.90
53272;DHT22;39160;48.580;7.756;2024-02-23T00:54:06;10.00;99.90
53272;DHT22;39160;48.580;7.756;2024-02-23T00:58:58;10.00;99.90
53272;DHT22;39160;48.580;7.756;2024-02-23T01:03:48;9.90;99.90
53272;DHT22;39160;48.580;7.756;2024-02-23T01:08:39;9.90;99.90
53272;DHT22;39160;48.580;7.756;2024-02-23T01:13:30;9.80;99.90
53272;DHT22;39160;48.580;7.756;2024-02-23T01:18:21;9.90;99.90
53272;DHT22;39160;48.580;7.756;2024-02-23T01:23:13;9.90;99.90
53272;DHT22;39160;48.580;7.756;2024-02-23T01:28:04;9.90;99.90
53272;DHT22;39160;48.580;7.756;2024-02-23T01:32:54;10.00;99.90
53272;DHT22;39160;48.580;7.756;2024-02-23T01:37:45;10.00;99.90
53272;DHT22;39160;48.580;7.756;2024-02-23T01:42:36;9.90;99.90
53272;DHT22;39160;48.580;7.756;2024-02-23T01:47:28;9.90;99.90
53272;DHT22;39160;48.580;7.756;2024-02-23T01:52:21;9.90;99.90
53272;DHT22;39160;48.580;7.756;2024-02-23T01:57:11;9.70;99.90
53272;DHT22;39160;48.580;7.756;2024-02-23T02:02:03;9.80;99.90
53272;DHT22;39160;48.580;7.756;2024-02-23T02:06:53;9.80;99.90
53272;DHT22;39160;48.580;7.756;2024-02-23T02:11:48;9.80;99.90
53272;DHT22;39160;48.580;7.756;2024-02-23T02:16:39;9.70;99.90
53272;DHT22;39160;48.580;7.756;2024-02-23T02:21:31;9.60;99.90
53272;DHT22;39160;48.580;7.756;2024-02-23T02:26:22;9.60;99.90
53272;DHT22;39160;48.580;7.756;2024-02-23T02:31:12;9.50;99.90
53272;DHT22;39160;48.580;7.756;2024-02-23T02:36:03;9.40;99.90
53272;DHT22;39160;48.580;7.756;2024-02-23T02:40:54;9.40;99.90
53272;DHT22;39160;48.580;7.756;2024-02-23T02:45:45;9.40;99.90
53272;DHT22;39160;48.580;7.756;2024-02-23T02:50:35;9.30;99.90
53272;DHT22;39160;48.580;7.756;2024-02-23T02:55:26;9.30;99.90
53272;DHT22;39160;48.580;7.756;2024-02-23T03:00:17;9.30;99.90
53272;DHT22;39160;48.580;7.756;2024-02-23T03:05:08;9.30;99.90
53272;DHT22;39160;48.580;7.756;2024-02-23T03:09:58;9.20;99.90
53272;DHT22;39160;48.580;7.756;2024-02-23T03:14:49;9.10;99.90
53272;DHT22;39160;48.580;7.756;2024-02-23T03:19:40;9.10;99.90
53272;DHT22;39160;48.580;7.756;2024-02-23T03:24:30;9.10;99.90
53272;DHT22;39160;48.580;7.756;2024-02-23T03:29:22;9.20;99.90
53272;DHT22;39160;48.580;7.756;2024-02-23T03:34:22;9.30;99.90
53272;DHT22;39160;48.580;7.756;2024-02-23T03:39:13;9.30;99.90
53272;DHT22;39160;48.580;7.756;2024-02-23T03:44:04;9.30;99.90
53272;DHT22;39160;48.580;7.756;2024-02-23T03:48:54;9.40;99.90
53272;DHT22;39160;48.580;7.756;2024-02-23T03:53:46;9.30;99.90
53272;DHT22;39160;48.580;7.756;2024-02-23T03:58:37;9.20;99.90
53272;DHT22;39160;48.580;7.756;2024-02-23T04:03:27;9.20;99.90
53272;DHT22;39160;48.580;7.756;2024-02-23T04:08:18;9.10;99.90
53272;DHT22;39160;48.580;7.756;2024-02-23T04:13:09;9.10;99.90
53272;DHT22;39160;48.580;7.756;2024-02-23T04:18:00;9.10;99.90
53272;DHT22;39160;48.580;7.756;2024-02-23T04:22:51;9.10;99.90
53272;DHT22;39160;48.580;7.756;2024-02-23T04:27:42;9.00;99.90
53272;DHT22;39160;48.580;7.756;2024-02-23T04:32:33;9.00;99.90
53272;DHT22;39160;48.580;7.756;2024-02-23T04:37:24;9.10;99.90
53272;DHT22;39160;48.580;7.756;2024-02-23T04:42:15;9.00;99.90
53272;DHT22;39160;48.580;7.756;2024-02-23T04:47:05;9.00;99.90
53272;DHT22;39160;48.580;7.756;2024-02-23T04:51:56;8.90;99.90
53272;DHT22;39160;48.580;7.756;2024-02-23T04:56:47;8.90;99.90
53272;DHT22;39160;48.580;7.756;2024-02-23T05:01:38;9.00;99.90
53272;DHT22;39160;48.580;7.756;2024-02-23T05:06:29;8.90;99.90
53272;DHT22;39160;48.580;7.756;2024-02-23T05:11:20;8.90;99.90
53272;DHT22;39160;48.580;7.756;2024-02-23T05:16:10;8.90;99.90
53272;DHT22;39160;48.580;7.756;2024-02-23T05:21:03;8.90;99.90
53272;DHT22;39160;48.580;7.756;2024-02-23T05:25:54;8.90;99.90
53272;DHT22;39160;48.580;7.756;2024-02-23T05:30:48;9.00;99.90
53272;DHT22;39160;48.580;7.756;2024-02-23T05:35:38;9.00;99.90
53272;DHT22;39160;48.580;7.756;2024-02-23T05:40:29;8.90;99.90
53272;DHT22;39160;48.580;7.756;2024-02-23T05:45:20;8.90;99.90
53272;DHT22;39160;48.580;7.756;2024-02-23T05:50:10;8.90;99.90
53272;DHT22;39160;48.580;7.756;2024-02-23T05:55:01;8.90;99.90
53272;DHT22;39160;48.580;7.756;2024-02-23T05:59:52;8.90;99.90
53272;DHT22;39160;48.580;7.756;2024-02-23T06:04:43;8.80;99.90
53272;DHT22;39160;48.580;7.756;2024-02-23T06:09:34;8.80;99.90
53272;DHT22;39160;48.580;7.756;2024-02-23T06:14:24;8.80;99.90
53272;DHT22;39160;48.580;7.756;2024-02-23T06:19:15;8.70;99.90
53272;DHT22;39160;48.580;7.756;2024-02-23T06:24:06;8.70;99.90
53272;DHT22;39160;48.580;7.756;2024-02-23T06:28:58;8.70;99.90
53272;DHT22;39160;48.580;7.756;2024-02-23T06:33:49;8.70;99.90
53272;DHT22;39160;48.580;7.756;2024-02-23T06:38:41;8.70;99.90
53272;DHT22;39160;48.580;7.756;2024-02-23T06:43:32;8.60;99.90
53272;DHT22;39160;48.580;7.756;2024-02-23T06:48:26;8.50;99.90
53272;DHT22;39160;48.580;7.756;2024-02-23T06:53:17;8.50;99.90
53272;DHT22;39160;48.580;7.756;2024-02-23T06:58:07;8.50;99.90
53272;DHT22;39160;48.580;7.756;2024-02-23T07:03:00;8.50;99.90
53272;DHT22;39160;48.580;7.756;2024-02-23T07:07:53;8.50;99.90
53272;DHT22;39160;48.580;7.756;2024-02-23T07:12:44;8.50;99.90
53272;DHT22;39160;48.580;7.756;2024-02-23T07:17:35;8.50;99.90
53272;DHT22;39160;48.580;7.756;2024-02-23T07:22:25;8.50;99.90
53272;DHT22;39160;48.580;7.756;2024-02-23T07:27:16;8.50;99.90
53272;DHT22;39160;48.580;7.756;2024-02-23T07:32:07;8.50;99.90
53272;DHT22;39160;48.580;7.756;2024-02-23T07:36:57;8.50;99.90
53272;DHT22;39160;48.580;7.756;2024-02-23T07:41:48;8.50;99.90
53272;DHT22;39160;48.580;7.756;2024-02-23T07:46:39;8.60;99.90
53272;DHT22;39160;48.580;7.756;2024-02-23T07:51:30;8.50;99.90
53272;DHT22;39160;48.580;7.756;2024-02-23T07:56:21;8.60;99.90
53272;DHT22;39160;48.580;7.756;2024-02-23T08:01:12;8.60;99.90
53272;DHT22;39160;48.580;7.756;2024-02-23T08:06:02;8.60;99.90
53272;DHT22;39160;48.580;7.756;2024-02-23T08:10:54;8.70;99.90
53272;DHT22;39160;48.580;7.756;2024-02-23T08:15:44;8.70;99.90
53272;DHT22;39160;48.580;7.756;2024-02-23T08:20:35;8.80;99.90
53272;DHT22;39160;48.580;7.756;2024-02-23T08:25:26;8.80;99.90
53272;DHT22;39160;48.580;7.756;2024-02-23T08:30:19;8.80;99.90
53272;DHT22;39160;48.580;7.756;2024-02-23T08:35:10;8.90;99.90
53272;DHT22;39160;48.580;7.756;2024-02-23T08:40:01;8.80;99.90
53272;DHT22;39160;48.580;7.756;2024-02-23T08:44:52;8.90;99.90
53272;DHT22;39160;48.580;7.756;2024-02-23T08:49:45;8.90;99.90
53272;DHT22;39160;48.580;7.756;2024-02-23T08:54:37;8.90;99.90
53272;DHT22;39160;48.580;7.756;2024-02-23T08:59:29;8.90;99.90
53272;DHT22;39160;48.580;7.756;2024-02-23T09:04:20;8.90;99.90
53272;DHT22;39160;48.580;7.756;2024-02-23T09:09:11;9.00;99.90
53272;DHT22;39160;48.580;7.756;2024-02-23T09:14:02;9.00;99.90
53272;DHT22;39160;48.580;7.756;2024-02-23T09:18:53;9.00;99.90
53272;DHT22;39160;48.580;7.756;2024-02-23T09:23:47;9.00;99.90
53272;DHT22;39160;48.580;7.756;2024-02-23T09:28:38;9.10;99.90
53272;DHT22;39160;48.580;7.756;2024-02-23T09:33:31;9.10;99.90
53272;DHT22;39160;48.580;7.756;2024-02-23T09:38:22;9.30;99.90
53272;DHT22;39160;48.580;7.756;2024-02-23T09:43:16;9.40;99.90
53272;DHT22;39160;48.580;7.756;2024-02-23T09:48:08;9.50;99.90
53272;DHT22;39160;48.580;7.756;2024-02-23T09:53:01;9.70;99.90
53272;DHT22;39160;48.580;7.756;2024-02-23T09:57:57;9.70;99.90
53272;DHT22;39160;48.580;7.756;2024-02-23T10:02:49;9.60;99.90
53272;DHT22;39160;48.580;7.756;2024-02-23T10:07:41;9.60;99.90
53272;DHT22;39160;48.580;7.756;2024-02-23T10:12:33;9.50;99.90
53272;DHT22;39160;48.580;7.756;2024-02-23T10:17:24;9.50;99.90
53272;DHT22;39160;48.580;7.756;2024-02-23T10:22:15;9.50;99.90
53272;DHT22;39160;48.580;7.756;2024-02-23T10:27:05;9.60;99.90
53272;DHT22;39160;48.580;7.756;2024-02-23T10:31:57;9.70;99.90
53272;DHT22;39160;48.580;7.756;2024-02-23T10:36:48;9.70;99.90
53272;DHT22;39160;48.580;7.756;2024-02-23T10:41:51;9.90;99.90
53272;DHT22;39160;48.580;7.756;2024-02-23T10:46:45;10.00;99.90
53272;DHT22;39160;48.580;7.756;2024-02-23T10:51:37;10.10;99.90
53272;DHT22;39160;48.580;7.756;2024-02-23T10:56:29;10.10;99.90
53272;DHT22;39160;48.580;7.756;2024-02-23T11:01:20;10.20;99.90
53272;DHT22;39160;48.580;7.756;2024-02-23T11:06:11;10.30;99.90
53272;DHT22;39160;48.580;7.756;2024-02-23T11:11:11;10.20;99.90
53272;DHT22;39160;48.580;7.756;2024-02-23T11:16:05;10.30;99.90
53272;DHT22;39160;48.580;7.756;2024-02-23T11:20:59;10.40;99.90
53272;DHT22;39160;48.580;7.756;2024-02-23T11:26:19;10.40;99.90
53272;DHT22;39160;48.580;7.756;2024-02-23T11:31:18;10.60;99.90
53272;DHT22;39160;48.580;7.756;2024-02-23T11:36:10;10.60;99.90
53272;DHT22;39160;48.580;7.756;2024-02-23T11:41:02;10.80;99.90
53272;DHT22;39160;48.580;7.756;2024-02-23T11:45:53;10.80;99.90
53272;DHT22;39160;48.580;7.756;2024-02-23T11:50:44;10.80;99.90
53272;DHT22;39160;48.580;7.756;2024-02-23T11:55:35;10.80;99.90
53272;DHT22;39160;48.580;7.756;2024-02-23T12:00:26;10.80;99.90
53272;DHT22;39160;48.580;7.756;2024-02-23T12:05:17;10.70;99.90
53272;DHT22;39160;48.580;7.756;2024-02-23T12:10:08;10.60;99.90
53272;DHT22;39160;48.580;7.756;2024-02-23T12:15:00;10.60;99.90
53272;DHT22;39160;48.580;7.756;2024-02-23T12:19:58;10.70;99.90
53272;DHT22;39160;48.580;7.756;2024-02-23T12:24:49;10.80;99.90
53272;DHT22;39160;48.580;7.756;2024-02-23T12:29:40;10.80;99.90
53272;DHT22;39160;48.580;7.756;2024-02-23T12:34:31;10.80;99.90
53272;DHT22;39160;48.580;7.756;2024-02-23T12:39:21;10.80;99.90
53272;DHT22;39160;48.580;7.756;2024-02-23T12:44:16;10.90;99.90
53272;DHT22;39160;48.580;7.756;2024-02-23T12:49:06;11.00;99.90
53272;DHT22;39160;48.580;7.756;2024-02-23T12:53:57;11.30;99.90
53272;DHT22;39160;48.580;7.756;2024-02-23T12:58:48;11.40;99.90
53272;DHT22;39160;48.580;7.756;2024-02-23T13:03:39;11.60;99.90
53272;DHT22;39160;48.580;7.756;2024-02-23T13:08:33;11.70;99.90
53272;DHT22;39160;48.580;7.756;2024-02-23T13:13:24;11.70;99.90
53272;DHT22;39160;48.580;7.756;2024-02-23T13:18:15;11.50;99.90
53272;DHT22;39160;48.580;7.756;2024-02-23T13:23:06;11.40;99.90
53272;DHT22;39160;48.580;7.756;2024-02-23T13:27:58;11.40;99.90
53272;DHT22;39160;48.580;7.756;2024-02-23T13:32:49;11.40;99.90
53272;DHT22;39160;48.580;7.756;2024-02-23T13:37:41;11.40;99.90
53272;DHT22;39160;48.580;7.756;2024-02-23T13:42:32;11.40;99.90
53272;DHT22;39160;48.580;7.756;2024-02-23T13:47:23;11.60;99.90
53272;DHT22;39160;48.580;7.756;2024-02-23T13:52:13;11.50;99.90
53272;DHT22;39160;48.580;7.756;2024-02-23T13:57:04;11.50;99.90
53272;DHT22;39160;48.580;7.756;2024-02-23T14:01:55;11.40;99.90
53272;DHT22;39160;48.580;7.756;2024-02-23T14:06:45;11.60;99.90
53272;DHT22;39160;48.580;7.756;2024-02-23T14:11:36;12.00;99.90
53272;DHT22;39160;48.580;7.756;2024-02-23T14:16:27;12.30;99.90
53272;DHT22;39160;48.580;7.756;2024-02-23T14:21:17;12.30;99.90
53272;DHT22;39160;48.580;7.756;2024-02-23T14:26:09;12.10;99.90
53272;DHT22;39160;48.580;7.756;2024-02-23T14:31:00;12.00;99.90
53272;DHT22;39160;48.580;7.756;2024-02-23T14:35:50;11.90;99.90
53272;DHT22;39160;48.580;7.756;2024-02-23T14:40:42;12.30;99.90
53272;DHT22;39160;48.580;7.756;2024-02-23T14:45:33;12.40;99.90
53272;DHT22;39160;48.580;7.756;2024-02-23T14:50:23;12.20;99.90
53272;DHT22;39160;48.580;7.756;2024-02-23T14:55:14;12.00;99.90
53272;DHT22;39160;48.580;7.756;2024-02-23T15:00:05;12.10;99.90
53272;DHT22;39160;48.580;7.756;2024-02-23T15:04:56;12.10;99.90
53272;DHT22;39160;48.580;7.756;2024-02-23T15:09:47;12.10;99.90
53272;DHT22;39160;48.580;7.756;2024-02-23T15:14:37;12.30;99.90
53272;DHT22;39160;48.580;7.756;2024-02-23T15:19:28;12.20;99.90
53272;DHT22;39160;48.580;7.756;2024-02-23T15:24:21;12.30;99.90
53272;DHT22;39160;48.580;7.756;2024-02-23T15:29:15;12.20;99.90
53272;DHT22;39160;48.580;7.756;2024-02-23T15:34:06;12.00;99.90
53272;DHT22;39160;48.580;7.756;2024-02-23T15:38:56;12.00;99.90
53272;DHT22;39160;48.580;7.756;2024-02-23T15:43:53;12.10;99.90
53272;DHT22;39160;48.580;7.756;2024-02-23T15:48:47;12.30;99.90
53272;DHT22;39160;48.580;7.756;2024-02-23T15:53:38;12.30;99.90
53272;DHT22;39160;48.580;7.756;2024-02-23T15:58:32;12.30;99.90
53272;DHT22;39160;48.580;7.756;2024-02-23T16:03:23;12.20;99.90
53272;DHT22;39160;48.580;7.756;2024-02-23T16:08:14;12.20;99.90
53272;DHT22;39160;48.580;7.756;2024-02-23T16:13:05;12.30;99.90
53272;DHT22;39160;48.580;7.756;2024-02-23T16:17:57;12.20;99.90
53272;DHT22;39160;48.580;7.756;2024-02-23T16:22:51;12.10;99.90
53272;DHT22;39160;48.580;7.756;2024-02-23T16:27:42;12.10;99.90
53272;DHT22;39160;48.580;7.756;2024-02-23T16:32:33;12.00;99.90
53272;DHT22;39160;48.580;7.756;2024-02-23T16:37:24;11.90;99.90
53272;DHT22;39160;48.580;7.756;2024-02-23T16:42:15;11.90;99.90
53272;DHT22;39160;48.580;7.756;2024-02-23T16:47:05;11.80;99.90
53272;DHT22;39160;48.580;7.756;2024-02-23T16:51:56;11.80;99.90
53272;DHT22;39160;48.580;7.756;2024-02-23T16:56:47;11.70;99.90
53272;DHT22;39160;48.580;7.756;2024-02-23T17:01:38;11.70;99.90
53272;DHT22;39160;48.580;7.756;2024-02-23T17:06:29;11.70;99.90
53272;DHT22;39160;48.580;7.756;2024-02-23T17:11:20;11.60;99.90
53272;DHT22;39160;48.580;7.756;2024-02-23T17:16:11;11.60;99.90
53272;DHT22;39160;48.580;7.756;2024-02-23T17:21:02;11.50;99.90
53272;DHT22;39160;48.580;7.756;2024-02-23T17:25:54;11.50;99.90
53272;DHT22;39160;48.580;7.756;2024-02-23T17:30:46;11.40;99.90
53272;DHT22;39160;48.580;7.756;2024-02-23T17:35:36;11.40;99.90
53272;DHT22;39160;48.580;7.756;2024-02-23T17:40:27;11.40;99.90
53272;DHT22;39160;48.580;7.756;2024-02-23T17:45:17;11.40;99.90
53272;DHT22;39160;48.580;7.756;2024-02-23T17:50:08;11.40;99.90
53272;DHT22;39160;48.580;7.756;2024-02-23T17:55:00;11.40;99.90
53272;DHT22;39160;48.580;7.756;2024-02-23T17:59:50;11.40;99.90
53272;DHT22;39160;48.580;7.756;2024-02-23T18:04:41;11.40;99.90
53272;DHT22;39160;48.580;7.756;2024-02-23T18:09:33;11.40;99.90
53272;DHT22;39160;48.580;7.756;2024-02-23T18:14:24;11.40;99.90
53272;DHT22;39160;48.580;7.756;2024-02-23T18:19:15;11.30;99.90
53272;DHT22;39160;48.580;7.756;2024-02-23T18:24:07;11.30;99.90
53272;DHT22;39160;48.580;7.756;2024-02-23T18:28:58;11.30;99.90
53272;DHT22;39160;48.580;7.756;2024-02-23T18:33:49;11.30;99.90
53272;DHT22;39160;48.580;7.756;2024-02-23T18:38:41;11.30;99.90
53272;DHT22;39160;48.580;7.756;2024-02-23T18:43:33;11.20;99.90
53272;DHT22;39160;48.580;7.756;2024-02-23T18:48:26;11.20;99.90
53272;DHT22;39160;48.580;7.756;2024-02-23T18:53:17;11.20;99.90
53272;DHT22;39160;48.580;7.756;2024-02-23T18:58:08;11.20;99.90
53272;DHT22;39160;48.580;7.756;2024-02-23T19:02:58;11.10;99.90
53272;DHT22;39160;48.580;7.756;2024-02-23T19:07:49;11.10;99.90
53272;DHT22;39160;48.580;7.756;2024-02-23T19:12:40;11.10;99.90
53272;DHT22;39160;48.580;7.756;2024-02-23T19:17:32;11.10;99.90
53272;DHT22;39160;48.580;7.756;2024-02-23T19:22:25;11.10;99.90
53272;DHT22;39160;48.580;7.756;2024-02-23T19:27:17;11.00;99.90
53272;DHT22;39160;48.580;7.756;2024-02-23T19:32:08;11.10;99.90
53272;DHT22;39160;48.580;7.756;2024-02-23T19:37:00;11.00;99.90
53272;DHT22;39160;48.580;7.756;2024-02-23T19:41:50;11.10;99.90
53272;DHT22;39160;48.580;7.756;2024-02-23T19:46:41;11.00;99.90
53272;DHT22;39160;48.580;7.756;2024-02-23T19:51:32;11.00;99.90
53272;DHT22;39160;48.580;7.756;2024-02-23T19:56:22;11.00;99.90
53272;DHT22;39160;48.580;7.756;2024-02-23T20:01:14;11.00;99.90
53272;DHT22;39160;48.580;7.756;2024-02-23T20:06:05;11.00;99.90
53272;DHT22;39160;48.580;7.756;2024-02-23T20:10:56;10.90;99.90
53272;DHT22;39160;48.580;7.756;2024-02-23T20:15:49;10.90;99.90
53272;DHT22;39160;48.580;7.756;2024-02-23T20:20:43;10.80;99.90
53272;DHT22;39160;48.580;7.756;2024-02-23T20:25:34;10.80;99.90
53272;DHT22;39160;48.580;7.756;2024-02-23T20:30:25;10.80;99.90
53272;DHT22;39160;48.580;7.756;2024-02-23T20:35:18;10.60;99.90
53272;DHT22;39160;48.580;7.756;2024-02-23T20:40:08;10.60;99.90
53272;DHT22;39160;48.580;7.756;2024-02-23T20:44:59;10.60;99.90
53272;DHT22;39160;48.580;7.756;2024-02-23T20:49:50;10.50;99.90
53272;DHT22;39160;48.580;7.756;2024-02-23T20:54:41;10.60;99.90
53272;DHT22;39160;48.580;7.756;2024-02-23T20:59:36;10.50;99.90
53272;DHT22;39160;48.580;7.756;2024-02-23T21:04:27;10.50;99.90
53272;DHT22;39160;48.580;7.756;2024-02-23T21:09:18;10.50;99.90
53272;DHT22;39160;48.580;7.756;2024-02-23T21:14:10;10.50;99.90
53272;DHT22;39160;48.580;7.756;2024-02-23T21:19:04;10.60;99.90
53272;DHT22;39160;48.580;7.756;2024-02-23T21:23:54;10.60;99.90
53272;DHT22;39160;48.580;7.756;2024-02-23T21:28:45;10.30;99.90
53272;DHT22;39160;48.580;7.756;2024-02-23T21:33:36;10.30;99.90
53272;DHT22;39160;48.580;7.756;2024-02-23T21:38:26;10.20;99.90
53272;DHT22;39160;48.580;7.756;2024-02-23T21:43:17;10.20;99.90
53272;DHT22;39160;48.580;7.756;2024-02-23T21:48:08;10.10;99.90
53272;DHT22;39160;48.580;7.756;2024-02-23T21:52:58;10.10;99.90
53272;DHT22;39160;48.580;7.756;2024-02-23T21:57:49;10.10;99.90
53272;DHT22;39160;48.580;7.756;2024-02-23T22:02:40;10.10;99.90
53272;DHT22;39160;48.580;7.756;2024-02-23T22:07:30;10.10;99.90
53272;DHT22;39160;48.580;7.756;2024-02-23T22:12:24;10.10;99.90
53272;DHT22;39160;48.580;7.756;2024-02-23T22:17:19;10.10;99.90
53272;DHT22;39160;48.580;7.756;2024-02-23T22:22:09;10.10;99.90
53272;DHT22;39160;48.580;7.756;2024-02-23T22:27:00;10.10;99.90
53272;DHT22;39160;48.580;7.756;2024-02-23T22:31:51;9.90;99.90
53272;DHT22;39160;48.580;7.756;2024-02-23T22:36:42;10.00;99.90
53272;DHT22;39160;48.580;7.756;2024-02-23T22:41:33;10.00;99.90
53272;DHT22;39160;48.580;7.756;2024-02-23T22:46:26;10.00;99.90
53272;DHT22;39160;48.580;7.756;2024-02-23T22:51:17;10.00;99.90
53272;DHT22;39160;48.580;7.756;2024-02-23T22:56:08;10.10;99.90
53272;DHT22;39160;48.580;7.756;2024-02-23T23:00:59;10.10;99.90
53272;DHT22;39160;48.580;7.756;2024-02-23T23:05:49;10.10;99.90
53272;DHT22;39160;48.580;7.756;2024-02-23T23:10:40;10.00;99.90
53272;DHT22;39160;48.580;7.756;2024-02-23T23:15:31;10.00;99.90
53272;DHT22;39160;48.580;7.756;2024-02-23T23:20:21;9.90;99.90
53272;DHT22;39160;48.580;7.756;2024-02-23T23:25:13;9.90;99.90
53272;DHT22;39160;48.580;7.756;2024-02-23T23:30:04;9.80;99.90
53272;DHT22;39160;48.580;7.756;2024-02-23T23:34:55;9.70;99.90
53272;DHT22;39160;48.580;7.756;2024-02-23T23:39:45;9.80;99.90
53272;DHT22;39160;48.580;7.756;2024-02-23T23:44:36;9.80;99.90
53272;DHT22;39160;48.580;7.756;2024-02-23T23:49:26;9.70;99.90
53272;DHT22;39160;48.580;7.756;2024-02-23T23:54:17;9.70;99.90
53272;DHT22;39160;48.580;7.756;2024-02-23T23:59:08;9.50;99.90
